sensor_id;sensor_type;location;lat;lon;timestamp;P1;durP1;ratioP1;P2;durP2;ratioP2
14766;SDS011;7475;53.558;9.970;2023-12-20T00:00:51;9.80;;;2.13;;
14766;SDS011;7475;53.558;9.970;2023-12-20T00:03:16;16.23;;;2.05;;
14766;SDS011;7475;53.558;9.970;2023-12-20T00:05:42;11.05;;;1.70;;
14766;SDS011;7475;53.558;9.970;2023-12-20T00:08:07;15.47;;;1.97;;
14766;SDS011;7475;53.558;9.970;2023-12-20T00:10:32;13.25;;;1.83;;
14766;SDS011;7475;53.558;9.970;2023-12-20T00:12:57;14.00;;;2.38;;
14766;SDS011;7475;53.558;9.970;2023-12-20T00:15:22;19.80;;;3.00;;
14766;SDS011;7475;53.558;9.970;2023-12-20T00:17:47;13.45;;;2.30;;
14766;SDS011;7475;53.558;9.970;2023-12-20T00:20:13;12.52;;;1.77;;
14766;SDS011;7475;53.558;9.970;2023-12-20T00:22:38;16.20;;;2.47;;
14766;SDS011;7475;53.558;9.970;2023-12-20T00:25:03;14.82;;;1.98;;
14766;SDS011;7475;53.558;9.970;2023-12-20T00:27:28;18.57;;;2.37;;
14766;SDS011;7475;53.558;9.970;2023-12-20T00:29:54;15.75;;;2.10;;
14766;SDS011;7475;53.558;9.970;2023-12-20T00:32:19;15.55;;;2.40;;
14766;SDS011;7475;53.558;9.970;2023-12-20T00:34:45;15.23;;;2.67;;
14766;SDS011;7475;53.558;9.970;2023-12-20T00:37:10;13.07;;;2.17;;
14766;SDS011;7475;53.558;9.970;2023-12-20T00:39:35;21.00;;;2.80;;
14766;SDS011;7475;53.558;9.970;2023-12-20T00:42:00;14.45;;;2.75;;
14766;SDS011;7475;53.558;9.970;2023-12-20T00:44:25;16.67;;;2.30;;
14766;SDS011;7475;53.558;9.970;2023-12-20T00:46:51;18.48;;;2.22;;
14766;SDS011;7475;53.558;9.970;2023-12-20T00:49:16;26.63;;;3.10;;
14766;SDS011;7475;53.558;9.970;2023-12-20T00:51:41;13.03;;;1.67;;
14766;SDS011;7475;53.558;9.970;2023-12-20T00:54:06;24.85;;;2.45;;
14766;SDS011;7475;53.558;9.970;2023-12-20T00:56:32;18.33;;;2.67;;
14766;SDS011;7475;53.558;9.970;2023-12-20T00:58:57;13.57;;;2.53;;
14766;SDS011;7475;53.558;9.970;2023-12-20T01:01:22;13.57;;;3.03;;
14766;SDS011;7475;53.558;9.970;2023-12-20T01:03:47;14.45;;;2.17;;
14766;SDS011;7475;53.558;9.970;2023-12-20T01:06:13;11.80;;;1.95;;
14766;SDS011;7475;53.558;9.970;2023-12-20T01:08:38;15.80;;;1.75;;
14766;SDS011;7475;53.558;9.970;2023-12-20T01:11:04;20.70;;;2.70;;
14766;SDS011;7475;53.558;9.970;2023-12-20T01:13:29;20.80;;;2.47;;
14766;SDS011;7475;53.558;9.970;2023-12-20T01:15:55;13.47;;;2.00;;
14766;SDS011;7475;53.558;9.970;2023-12-20T01:18:20;16.37;;;2.60;;
14766;SDS011;7475;53.558;9.970;2023-12-20T01:20:45;12.63;;;1.98;;
14766;SDS011;7475;53.558;9.970;2023-12-20T01:23:10;22.57;;;2.07;;
14766;SDS011;7475;53.558;9.970;2023-12-20T01:25:36;17.00;;;1.77;;
14766;SDS011;7475;53.558;9.970;2023-12-20T01:28:01;18.63;;;3.13;;
14766;SDS011;7475;53.558;9.970;2023-12-20T01:30:28;17.38;;;2.47;;
14766;SDS011;7475;53.558;9.970;2023-12-20T01:32:53;12.10;;;1.93;;
14766;SDS011;7475;53.558;9.970;2023-12-20T01:35:19;17.87;;;2.97;;
14766;SDS011;7475;53.558;9.970;2023-12-20T01:37:44;15.60;;;2.27;;
14766;SDS011;7475;53.558;9.970;2023-12-20T01:40:09;21.17;;;2.47;;
14766;SDS011;7475;53.558;9.970;2023-12-20T01:42:35;14.33;;;2.10;;
14766;SDS011;7475;53.558;9.970;2023-12-20T01:45:00;20.00;;;2.23;;
14766;SDS011;7475;53.558;9.970;2023-12-20T01:47:25;13.30;;;1.63;;
14766;SDS011;7475;53.558;9.970;2023-12-20T01:49:52;16.97;;;2.50;;
14766;SDS011;7475;53.558;9.970;2023-12-20T01:52:17;17.08;;;2.22;;
14766;SDS011;7475;53.558;9.970;2023-12-20T01:54:42;14.93;;;2.50;;
14766;SDS011;7475;53.558;9.970;2023-12-20T01:57:07;20.60;;;2.87;;
14766;SDS011;7475;53.558;9.970;2023-12-20T01:59:33;18.60;;;2.30;;
14766;SDS011;7475;53.558;9.970;2023-12-20T02:01:59;12.90;;;2.13;;
14766;SDS011;7475;53.558;9.970;2023-12-20T02:04:24;19.08;;;2.30;;
14766;SDS011;7475;53.558;9.970;2023-12-20T02:06:50;14.93;;;2.40;;
14766;SDS011;7475;53.558;9.970;2023-12-20T02:09:17;17.40;;;2.40;;
14766;SDS011;7475;53.558;9.970;2023-12-20T02:11:43;14.53;;;1.90;;
14766;SDS011;7475;53.558;9.970;2023-12-20T02:14:08;19.07;;;2.07;;
14766;SDS011;7475;53.558;9.970;2023-12-20T02:16:33;16.30;;;2.17;;
14766;SDS011;7475;53.558;9.970;2023-12-20T02:18:58;19.57;;;2.47;;
14766;SDS011;7475;53.558;9.970;2023-12-20T02:21:33;13.40;;;2.13;;
14766;SDS011;7475;53.558;9.970;2023-12-20T02:24:01;15.73;;;2.40;;
14766;SDS011;7475;53.558;9.970;2023-12-20T02:26:26;12.17;;;1.80;;
14766;SDS011;7475;53.558;9.970;2023-12-20T02:28:51;12.73;;;1.80;;
14766;SDS011;7475;53.558;9.970;2023-12-20T02:31:20;13.32;;;2.40;;
14766;SDS011;7475;53.558;9.970;2023-12-20T02:33:45;21.77;;;2.10;;
14766;SDS011;7475;53.558;9.970;2023-12-20T02:36:10;21.60;;;2.00;;
14766;SDS011;7475;53.558;9.970;2023-12-20T02:38:35;11.13;;;1.90;;
14766;SDS011;7475;53.558;9.970;2023-12-20T02:41:01;20.90;;;3.17;;
14766;SDS011;7475;53.558;9.970;2023-12-20T02:43:26;19.03;;;2.20;;
14766;SDS011;7475;53.558;9.970;2023-12-20T02:45:51;16.43;;;2.30;;
14766;SDS011;7475;53.558;9.970;2023-12-20T02:48:17;12.70;;;2.77;;
14766;SDS011;7475;53.558;9.970;2023-12-20T02:50:42;14.43;;;2.67;;
14766;SDS011;7475;53.558;9.970;2023-12-20T02:53:07;22.97;;;2.77;;
14766;SDS011;7475;53.558;9.970;2023-12-20T02:55:32;12.73;;;2.10;;
14766;SDS011;7475;53.558;9.970;2023-12-20T02:57:58;12.57;;;2.37;;
14766;SDS011;7475;53.558;9.970;2023-12-20T03:00:23;13.63;;;2.10;;
14766;SDS011;7475;53.558;9.970;2023-12-20T03:02:49;11.50;;;2.13;;
14766;SDS011;7475;53.558;9.970;2023-12-20T03:05:14;19.25;;;2.60;;
14766;SDS011;7475;53.558;9.970;2023-12-20T03:07:39;21.55;;;2.53;;
14766;SDS011;7475;53.558;9.970;2023-12-20T03:10:04;15.23;;;2.07;;
14766;SDS011;7475;53.558;9.970;2023-12-20T03:12:31;11.40;;;2.00;;
14766;SDS011;7475;53.558;9.970;2023-12-20T03:14:56;11.48;;;1.85;;
14766;SDS011;7475;53.558;9.970;2023-12-20T03:17:21;11.52;;;2.15;;
14766;SDS011;7475;53.558;9.970;2023-12-20T03:19:46;11.57;;;1.80;;
14766;SDS011;7475;53.558;9.970;2023-12-20T03:22:12;13.32;;;2.10;;
14766;SDS011;7475;53.558;9.970;2023-12-20T03:24:37;13.63;;;1.70;;
14766;SDS011;7475;53.558;9.970;2023-12-20T03:27:02;14.65;;;2.83;;
14766;SDS011;7475;53.558;9.970;2023-12-20T03:29:27;19.90;;;2.50;;
14766;SDS011;7475;53.558;9.970;2023-12-20T03:31:52;24.38;;;3.28;;
14766;SDS011;7475;53.558;9.970;2023-12-20T03:34:17;21.08;;;2.55;;
14766;SDS011;7475;53.558;9.970;2023-12-20T03:36:43;10.65;;;2.60;;
14766;SDS011;7475;53.558;9.970;2023-12-20T03:39:08;13.82;;;2.15;;
14766;SDS011;7475;53.558;9.970;2023-12-20T03:41:35;10.02;;;1.88;;
14766;SDS011;7475;53.558;9.970;2023-12-20T03:44:00;10.73;;;2.30;;
14766;SDS011;7475;53.558;9.970;2023-12-20T03:46:25;13.10;;;1.80;;
14766;SDS011;7475;53.558;9.970;2023-12-20T03:48:50;16.87;;;2.80;;
14766;SDS011;7475;53.558;9.970;2023-12-20T03:51:15;17.75;;;2.70;;
14766;SDS011;7475;53.558;9.970;2023-12-20T03:53:40;7.35;;;1.90;;
14766;SDS011;7475;53.558;9.970;2023-12-20T03:56:06;16.25;;;2.90;;
14766;SDS011;7475;53.558;9.970;2023-12-20T03:58:31;11.52;;;2.05;;
14766;SDS011;7475;53.558;9.970;2023-12-20T04:00:56;12.60;;;2.42;;
14766;SDS011;7475;53.558;9.970;2023-12-20T04:03:21;15.23;;;2.03;;
14766;SDS011;7475;53.558;9.970;2023-12-20T04:05:47;13.52;;;2.30;;
14766;SDS011;7475;53.558;9.970;2023-12-20T04:08:12;13.33;;;2.20;;
14766;SDS011;7475;53.558;9.970;2023-12-20T04:10:37;12.97;;;2.27;;
14766;SDS011;7475;53.558;9.970;2023-12-20T04:13:03;16.63;;;2.38;;
14766;SDS011;7475;53.558;9.970;2023-12-20T04:15:28;11.55;;;2.00;;
14766;SDS011;7475;53.558;9.970;2023-12-20T04:17:53;10.90;;;2.30;;
14766;SDS011;7475;53.558;9.970;2023-12-20T04:20:19;11.52;;;2.67;;
14766;SDS011;7475;53.558;9.970;2023-12-20T04:22:44;9.73;;;2.13;;
14766;SDS011;7475;53.558;9.970;2023-12-20T04:25:09;11.60;;;2.70;;
14766;SDS011;7475;53.558;9.970;2023-12-20T04:27:34;22.53;;;2.60;;
14766;SDS011;7475;53.558;9.970;2023-12-20T04:30:00;12.10;;;2.28;;
14766;SDS011;7475;53.558;9.970;2023-12-20T04:32:25;11.07;;;2.03;;
14766;SDS011;7475;53.558;9.970;2023-12-20T04:34:50;14.55;;;2.58;;
14766;SDS011;7475;53.558;9.970;2023-12-20T04:37:15;13.93;;;2.25;;
14766;SDS011;7475;53.558;9.970;2023-12-20T04:39:40;14.30;;;2.17;;
14766;SDS011;7475;53.558;9.970;2023-12-20T04:42:06;13.95;;;2.28;;
14766;SDS011;7475;53.558;9.970;2023-12-20T04:44:31;12.75;;;1.80;;
14766;SDS011;7475;53.558;9.970;2023-12-20T04:46:57;14.32;;;2.42;;
14766;SDS011;7475;53.558;9.970;2023-12-20T04:49:22;9.55;;;1.90;;
14766;SDS011;7475;53.558;9.970;2023-12-20T04:51:47;15.45;;;2.58;;
14766;SDS011;7475;53.558;9.970;2023-12-20T04:54:12;12.95;;;1.75;;
14766;SDS011;7475;53.558;9.970;2023-12-20T04:56:38;13.90;;;2.15;;
14766;SDS011;7475;53.558;9.970;2023-12-20T04:59:04;12.40;;;1.70;;
14766;SDS011;7475;53.558;9.970;2023-12-20T05:01:29;10.77;;;2.30;;
14766;SDS011;7475;53.558;9.970;2023-12-20T05:03:54;6.05;;;1.40;;
14766;SDS011;7475;53.558;9.970;2023-12-20T05:06:20;12.13;;;2.38;;
14766;SDS011;7475;53.558;9.970;2023-12-20T05:08:45;14.77;;;2.85;;
14766;SDS011;7475;53.558;9.970;2023-12-20T05:11:10;11.00;;;2.05;;
14766;SDS011;7475;53.558;9.970;2023-12-20T05:13:35;16.20;;;3.15;;
14766;SDS011;7475;53.558;9.970;2023-12-20T05:16:00;14.43;;;2.22;;
14766;SDS011;7475;53.558;9.970;2023-12-20T05:18:26;10.68;;;2.35;;
14766;SDS011;7475;53.558;9.970;2023-12-20T05:20:51;15.73;;;2.63;;
14766;SDS011;7475;53.558;9.970;2023-12-20T05:23:16;13.13;;;2.40;;
14766;SDS011;7475;53.558;9.970;2023-12-20T05:25:42;5.75;;;1.73;;
14766;SDS011;7475;53.558;9.970;2023-12-20T05:28:07;10.18;;;2.30;;
14766;SDS011;7475;53.558;9.970;2023-12-20T05:30:32;12.98;;;2.30;;
14766;SDS011;7475;53.558;9.970;2023-12-20T05:32:57;13.77;;;2.40;;
14766;SDS011;7475;53.558;9.970;2023-12-20T05:35:22;10.57;;;2.28;;
14766;SDS011;7475;53.558;9.970;2023-12-20T05:37:48;11.02;;;2.17;;
14766;SDS011;7475;53.558;9.970;2023-12-20T05:40:13;17.88;;;2.95;;
14766;SDS011;7475;53.558;9.970;2023-12-20T05:42:39;20.02;;;3.28;;
14766;SDS011;7475;53.558;9.970;2023-12-20T05:45:04;14.77;;;2.30;;
14766;SDS011;7475;53.558;9.970;2023-12-20T05:47:30;13.90;;;2.50;;
14766;SDS011;7475;53.558;9.970;2023-12-20T05:49:55;11.48;;;2.95;;
14766;SDS011;7475;53.558;9.970;2023-12-20T05:52:20;13.15;;;2.65;;
14766;SDS011;7475;53.558;9.970;2023-12-20T05:54:45;14.48;;;3.75;;
14766;SDS011;7475;53.558;9.970;2023-12-20T05:57:11;17.42;;;3.30;;
14766;SDS011;7475;53.558;9.970;2023-12-20T05:59:36;12.23;;;2.33;;
14766;SDS011;7475;53.558;9.970;2023-12-20T06:02:02;10.40;;;2.17;;
14766;SDS011;7475;53.558;9.970;2023-12-20T06:04:27;15.68;;;2.97;;
14766;SDS011;7475;53.558;9.970;2023-12-20T06:06:53;16.33;;;2.83;;
14766;SDS011;7475;53.558;9.970;2023-12-20T06:09:18;14.70;;;2.67;;
14766;SDS011;7475;53.558;9.970;2023-12-20T06:11:43;12.05;;;2.67;;
14766;SDS011;7475;53.558;9.970;2023-12-20T06:14:08;7.03;;;1.88;;
14766;SDS011;7475;53.558;9.970;2023-12-20T06:16:33;16.17;;;2.88;;
14766;SDS011;7475;53.558;9.970;2023-12-20T06:18:59;13.55;;;2.72;;
14766;SDS011;7475;53.558;9.970;2023-12-20T06:21:24;18.48;;;2.65;;
14766;SDS011;7475;53.558;9.970;2023-12-20T06:23:49;11.25;;;2.75;;
14766;SDS011;7475;53.558;9.970;2023-12-20T06:26:14;12.95;;;2.40;;
14766;SDS011;7475;53.558;9.970;2023-12-20T06:28:39;16.33;;;2.58;;
14766;SDS011;7475;53.558;9.970;2023-12-20T06:31:04;17.98;;;2.50;;
14766;SDS011;7475;53.558;9.970;2023-12-20T06:33:30;17.00;;;2.90;;
14766;SDS011;7475;53.558;9.970;2023-12-20T06:35:56;15.07;;;2.58;;
14766;SDS011;7475;53.558;9.970;2023-12-20T06:38:21;12.77;;;2.75;;
14766;SDS011;7475;53.558;9.970;2023-12-20T06:40:46;16.73;;;2.65;;
14766;SDS011;7475;53.558;9.970;2023-12-20T06:43:12;21.67;;;2.53;;
14766;SDS011;7475;53.558;9.970;2023-12-20T06:45:38;9.43;;;1.65;;
14766;SDS011;7475;53.558;9.970;2023-12-20T06:48:03;17.23;;;3.13;;
14766;SDS011;7475;53.558;9.970;2023-12-20T06:50:28;14.68;;;2.65;;
14766;SDS011;7475;53.558;9.970;2023-12-20T06:52:54;18.17;;;3.08;;
14766;SDS011;7475;53.558;9.970;2023-12-20T06:55:19;18.35;;;2.90;;
14766;SDS011;7475;53.558;9.970;2023-12-20T06:57:44;16.30;;;2.13;;
14766;SDS011;7475;53.558;9.970;2023-12-20T07:00:10;14.32;;;2.53;;
14766;SDS011;7475;53.558;9.970;2023-12-20T07:02:36;11.90;;;2.03;;
14766;SDS011;7475;53.558;9.970;2023-12-20T07:05:01;22.25;;;2.95;;
14766;SDS011;7475;53.558;9.970;2023-12-20T07:07:26;12.88;;;2.45;;
14766;SDS011;7475;53.558;9.970;2023-12-20T07:09:51;17.05;;;3.38;;
14766;SDS011;7475;53.558;9.970;2023-12-20T07:12:17;14.93;;;2.58;;
14766;SDS011;7475;53.558;9.970;2023-12-20T07:14:44;11.45;;;2.50;;
14766;SDS011;7475;53.558;9.970;2023-12-20T07:17:09;11.77;;;2.60;;
14766;SDS011;7475;53.558;9.970;2023-12-20T07:19:37;15.15;;;2.50;;
14766;SDS011;7475;53.558;9.970;2023-12-20T07:22:02;13.55;;;2.40;;
14766;SDS011;7475;53.558;9.970;2023-12-20T07:24:27;20.45;;;3.25;;
14766;SDS011;7475;53.558;9.970;2023-12-20T07:26:52;15.98;;;3.08;;
14766;SDS011;7475;53.558;9.970;2023-12-20T07:29:17;16.05;;;2.63;;
14766;SDS011;7475;53.558;9.970;2023-12-20T07:31:43;13.18;;;2.55;;
14766;SDS011;7475;53.558;9.970;2023-12-20T07:34:08;13.90;;;2.90;;
14766;SDS011;7475;53.558;9.970;2023-12-20T07:36:33;19.00;;;3.25;;
14766;SDS011;7475;53.558;9.970;2023-12-20T07:38:58;9.93;;;2.38;;
14766;SDS011;7475;53.558;9.970;2023-12-20T07:41:23;13.23;;;3.30;;
14766;SDS011;7475;53.558;9.970;2023-12-20T07:43:49;18.52;;;3.88;;
14766;SDS011;7475;53.558;9.970;2023-12-20T07:46:14;19.35;;;3.10;;
14766;SDS011;7475;53.558;9.970;2023-12-20T07:48:39;22.27;;;3.35;;
14766;SDS011;7475;53.558;9.970;2023-12-20T07:51:06;14.27;;;3.15;;
14766;SDS011;7475;53.558;9.970;2023-12-20T07:53:33;12.32;;;2.70;;
14766;SDS011;7475;53.558;9.970;2023-12-20T07:55:58;17.70;;;3.15;;
14766;SDS011;7475;53.558;9.970;2023-12-20T07:58:23;14.73;;;2.95;;
14766;SDS011;7475;53.558;9.970;2023-12-20T08:00:48;15.07;;;3.15;;
14766;SDS011;7475;53.558;9.970;2023-12-20T08:03:13;14.45;;;3.13;;
14766;SDS011;7475;53.558;9.970;2023-12-20T08:05:39;21.70;;;3.72;;
14766;SDS011;7475;53.558;9.970;2023-12-20T08:08:05;10.73;;;2.63;;
14766;SDS011;7475;53.558;9.970;2023-12-20T08:10:31;11.73;;;2.67;;
14766;SDS011;7475;53.558;9.970;2023-12-20T08:12:56;16.00;;;3.50;;
14766;SDS011;7475;53.558;9.970;2023-12-20T08:15:21;13.95;;;3.65;;
14766;SDS011;7475;53.558;9.970;2023-12-20T08:17:46;14.57;;;3.05;;
14766;SDS011;7475;53.558;9.970;2023-12-20T08:20:11;17.40;;;3.38;;
14766;SDS011;7475;53.558;9.970;2023-12-20T08:22:36;15.43;;;3.63;;
14766;SDS011;7475;53.558;9.970;2023-12-20T08:25:02;14.88;;;2.80;;
14766;SDS011;7475;53.558;9.970;2023-12-20T08:27:27;13.85;;;2.70;;
14766;SDS011;7475;53.558;9.970;2023-12-20T08:29:52;10.75;;;2.20;;
14766;SDS011;7475;53.558;9.970;2023-12-20T08:32:17;11.25;;;2.17;;
14766;SDS011;7475;53.558;9.970;2023-12-20T08:34:42;16.45;;;2.78;;
14766;SDS011;7475;53.558;9.970;2023-12-20T08:37:08;10.90;;;2.55;;
14766;SDS011;7475;53.558;9.970;2023-12-20T08:39:33;10.55;;;2.50;;
14766;SDS011;7475;53.558;9.970;2023-12-20T08:41:58;17.35;;;3.03;;
14766;SDS011;7475;53.558;9.970;2023-12-20T08:44:23;13.43;;;3.03;;
14766;SDS011;7475;53.558;9.970;2023-12-20T08:46:49;17.88;;;3.15;;
14766;SDS011;7475;53.558;9.970;2023-12-20T08:49:14;18.52;;;3.22;;
14766;SDS011;7475;53.558;9.970;2023-12-20T08:51:39;13.18;;;2.50;;
14766;SDS011;7475;53.558;9.970;2023-12-20T08:54:06;15.45;;;2.53;;
14766;SDS011;7475;53.558;9.970;2023-12-20T08:56:32;14.73;;;2.70;;
14766;SDS011;7475;53.558;9.970;2023-12-20T08:58:58;11.73;;;2.72;;
14766;SDS011;7475;53.558;9.970;2023-12-20T09:01:23;16.10;;;3.20;;
14766;SDS011;7475;53.558;9.970;2023-12-20T09:03:49;11.23;;;2.08;;
14766;SDS011;7475;53.558;9.970;2023-12-20T09:06:14;15.88;;;2.78;;
14766;SDS011;7475;53.558;9.970;2023-12-20T09:08:39;12.05;;;2.22;;
14766;SDS011;7475;53.558;9.970;2023-12-20T09:11:04;13.55;;;2.45;;
14766;SDS011;7475;53.558;9.970;2023-12-20T09:13:29;11.98;;;2.35;;
14766;SDS011;7475;53.558;9.970;2023-12-20T09:15:57;11.02;;;2.90;;
14766;SDS011;7475;53.558;9.970;2023-12-20T09:18:22;14.90;;;2.72;;
14766;SDS011;7475;53.558;9.970;2023-12-20T09:20:47;7.85;;;1.60;;
14766;SDS011;7475;53.558;9.970;2023-12-20T09:23:12;21.02;;;2.97;;
14766;SDS011;7475;53.558;9.970;2023-12-20T09:25:37;12.25;;;2.22;;
14766;SDS011;7475;53.558;9.970;2023-12-20T09:28:03;14.30;;;1.90;;
14766;SDS011;7475;53.558;9.970;2023-12-20T09:30:28;8.00;;;1.52;;
14766;SDS011;7475;53.558;9.970;2023-12-20T09:32:54;9.57;;;1.83;;
14766;SDS011;7475;53.558;9.970;2023-12-20T09:35:19;4.85;;;1.23;;
14766;SDS011;7475;53.558;9.970;2023-12-20T09:37:44;6.00;;;1.30;;
14766;SDS011;7475;53.558;9.970;2023-12-20T09:40:12;5.15;;;0.93;;
14766;SDS011;7475;53.558;9.970;2023-12-20T09:42:39;5.43;;;1.25;;
14766;SDS011;7475;53.558;9.970;2023-12-20T09:45:10;3.60;;;0.73;;
14766;SDS011;7475;53.558;9.970;2023-12-20T09:47:38;4.82;;;1.00;;
14766;SDS011;7475;53.558;9.970;2023-12-20T09:50:04;3.38;;;0.88;;
14766;SDS011;7475;53.558;9.970;2023-12-20T09:52:29;2.50;;;0.70;;
14766;SDS011;7475;53.558;9.970;2023-12-20T09:54:55;4.22;;;0.95;;
14766;SDS011;7475;53.558;9.970;2023-12-20T09:57:20;1.38;;;0.68;;
14766;SDS011;7475;53.558;9.970;2023-12-20T09:59:46;6.57;;;1.02;;
14766;SDS011;7475;53.558;9.970;2023-12-20T10:02:12;4.15;;;0.70;;
14766;SDS011;7475;53.558;9.970;2023-12-20T10:04:39;4.47;;;0.90;;
14766;SDS011;7475;53.558;9.970;2023-12-20T10:07:06;2.35;;;0.60;;
14766;SDS011;7475;53.558;9.970;2023-12-20T10:09:32;3.65;;;0.60;;
14766;SDS011;7475;53.558;9.970;2023-12-20T10:11:57;1.98;;;0.57;;
14766;SDS011;7475;53.558;9.970;2023-12-20T10:14:23;2.10;;;0.63;;
14766;SDS011;7475;53.558;9.970;2023-12-20T10:16:49;2.25;;;0.77;;
14766;SDS011;7475;53.558;9.970;2023-12-20T10:19:16;1.90;;;0.30;;
14766;SDS011;7475;53.558;9.970;2023-12-20T10:21:41;3.35;;;0.90;;
14766;SDS011;7475;53.558;9.970;2023-12-20T10:24:06;4.72;;;0.57;;
14766;SDS011;7475;53.558;9.970;2023-12-20T10:26:32;2.15;;;0.60;;
14766;SDS011;7475;53.558;9.970;2023-12-20T10:28:59;4.87;;;0.70;;
14766;SDS011;7475;53.558;9.970;2023-12-20T10:31:33;3.40;;;0.80;;
14766;SDS011;7475;53.558;9.970;2023-12-20T10:34:00;7.28;;;0.45;;
14766;SDS011;7475;53.558;9.970;2023-12-20T10:36:26;2.33;;;0.73;;
14766;SDS011;7475;53.558;9.970;2023-12-20T10:38:54;3.67;;;0.80;;
14766;SDS011;7475;53.558;9.970;2023-12-20T10:41:22;3.22;;;0.82;;
14766;SDS011;7475;53.558;9.970;2023-12-20T10:43:49;4.53;;;0.50;;
14766;SDS011;7475;53.558;9.970;2023-12-20T10:46:15;8.30;;;0.85;;
14766;SDS011;7475;53.558;9.970;2023-12-20T10:48:41;6.38;;;0.90;;
14766;SDS011;7475;53.558;9.970;2023-12-20T10:51:06;6.57;;;1.25;;
14766;SDS011;7475;53.558;9.970;2023-12-20T10:53:31;3.22;;;0.90;;
14766;SDS011;7475;53.558;9.970;2023-12-20T10:55:56;4.63;;;0.40;;
14766;SDS011;7475;53.558;9.970;2023-12-20T10:58:25;5.75;;;1.17;;
14766;SDS011;7475;53.558;9.970;2023-12-20T11:00:51;7.10;;;1.03;;
14766;SDS011;7475;53.558;9.970;2023-12-20T11:03:21;5.27;;;1.00;;
14766;SDS011;7475;53.558;9.970;2023-12-20T11:10:51;8.18;;;1.20;;
14766;SDS011;7475;53.558;9.970;2023-12-20T11:13:20;8.73;;;1.13;;
14766;SDS011;7475;53.558;9.970;2023-12-20T11:15:46;6.90;;;1.23;;
14766;SDS011;7475;53.558;9.970;2023-12-20T11:18:11;6.93;;;1.38;;
14766;SDS011;7475;53.558;9.970;2023-12-20T11:20:40;5.43;;;1.00;;
14766;SDS011;7475;53.558;9.970;2023-12-20T11:23:05;6.60;;;0.93;;
14766;SDS011;7475;53.558;9.970;2023-12-20T11:25:44;9.35;;;1.40;;
14766;SDS011;7475;53.558;9.970;2023-12-20T11:28:10;5.20;;;1.27;;
14766;SDS011;7475;53.558;9.970;2023-12-20T11:30:42;9.10;;;1.10;;
14766;SDS011;7475;53.558;9.970;2023-12-20T11:33:10;9.30;;;1.33;;
14766;SDS011;7475;53.558;9.970;2023-12-20T11:35:35;9.40;;;1.58;;
14766;SDS011;7475;53.558;9.970;2023-12-20T11:38:01;11.63;;;2.25;;
14766;SDS011;7475;53.558;9.970;2023-12-20T11:40:27;13.75;;;1.88;;
14766;SDS011;7475;53.558;9.970;2023-12-20T11:42:52;6.85;;;1.38;;
14766;SDS011;7475;53.558;9.970;2023-12-20T11:45:20;2.05;;;0.88;;
14766;SDS011;7475;53.558;9.970;2023-12-20T11:47:47;13.00;;;1.80;;
14766;SDS011;7475;53.558;9.970;2023-12-20T11:50:14;12.13;;;1.45;;
14766;SDS011;7475;53.558;9.970;2023-12-20T11:52:39;11.95;;;1.95;;
14766;SDS011;7475;53.558;9.970;2023-12-20T11:55:05;9.80;;;1.88;;
14766;SDS011;7475;53.558;9.970;2023-12-20T11:57:30;10.20;;;2.50;;
14766;SDS011;7475;53.558;9.970;2023-12-20T11:59:56;15.45;;;2.45;;
14766;SDS011;7475;53.558;9.970;2023-12-20T12:02:21;10.70;;;3.03;;
14766;SDS011;7475;53.558;9.970;2023-12-20T12:04:48;15.23;;;3.97;;
14766;SDS011;7475;53.558;9.970;2023-12-20T12:07:13;15.60;;;5.38;;
14766;SDS011;7475;53.558;9.970;2023-12-20T12:09:38;13.95;;;3.83;;
14766;SDS011;7475;53.558;9.970;2023-12-20T12:12:03;14.93;;;3.60;;
14766;SDS011;7475;53.558;9.970;2023-12-20T12:14:29;11.70;;;2.30;;
14766;SDS011;7475;53.558;9.970;2023-12-20T12:16:54;14.55;;;2.33;;
14766;SDS011;7475;53.558;9.970;2023-12-20T12:19:23;8.40;;;1.67;;
14766;SDS011;7475;53.558;9.970;2023-12-20T12:21:51;10.98;;;2.00;;
14766;SDS011;7475;53.558;9.970;2023-12-20T12:24:28;10.95;;;2.35;;
14766;SDS011;7475;53.558;9.970;2023-12-20T12:26:57;13.75;;;2.78;;
14766;SDS011;7475;53.558;9.970;2023-12-20T12:29:22;15.00;;;4.18;;
14766;SDS011;7475;53.558;9.970;2023-12-20T12:31:49;20.02;;;5.45;;
14766;SDS011;7475;53.558;9.970;2023-12-20T12:34:14;11.65;;;3.67;;
14766;SDS011;7475;53.558;9.970;2023-12-20T12:36:41;8.65;;;2.60;;
14766;SDS011;7475;53.558;9.970;2023-12-20T12:39:06;9.95;;;2.30;;
14766;SDS011;7475;53.558;9.970;2023-12-20T12:41:31;14.20;;;2.70;;
14766;SDS011;7475;53.558;9.970;2023-12-20T12:43:57;11.77;;;2.58;;
14766;SDS011;7475;53.558;9.970;2023-12-20T12:46:22;27.60;;;3.97;;
14766;SDS011;7475;53.558;9.970;2023-12-20T12:48:47;14.20;;;5.00;;
14766;SDS011;7475;53.558;9.970;2023-12-20T12:51:12;10.68;;;4.10;;
14766;SDS011;7475;53.558;9.970;2023-12-20T12:53:38;15.10;;;3.28;;
14766;SDS011;7475;53.558;9.970;2023-12-20T12:56:04;13.35;;;2.40;;
14766;SDS011;7475;53.558;9.970;2023-12-20T12:58:29;8.38;;;2.25;;
14766;SDS011;7475;53.558;9.970;2023-12-20T13:00:54;16.63;;;2.55;;
14766;SDS011;7475;53.558;9.970;2023-12-20T13:03:20;7.32;;;1.73;;
14766;SDS011;7475;53.558;9.970;2023-12-20T13:05:45;13.18;;;3.33;;
14766;SDS011;7475;53.558;9.970;2023-12-20T13:08:12;11.77;;;2.75;;
14766;SDS011;7475;53.558;9.970;2023-12-20T13:10:38;14.57;;;2.72;;
14766;SDS011;7475;53.558;9.970;2023-12-20T13:13:03;15.75;;;3.28;;
14766;SDS011;7475;53.558;9.970;2023-12-20T13:15:29;10.45;;;2.33;;
14766;SDS011;7475;53.558;9.970;2023-12-20T13:17:55;13.75;;;2.50;;
14766;SDS011;7475;53.558;9.970;2023-12-20T13:20:23;15.80;;;2.83;;
14766;SDS011;7475;53.558;9.970;2023-12-20T13:22:48;14.43;;;2.65;;
14766;SDS011;7475;53.558;9.970;2023-12-20T13:25:13;14.82;;;2.83;;
14766;SDS011;7475;53.558;9.970;2023-12-20T13:27:39;10.73;;;2.50;;
14766;SDS011;7475;53.558;9.970;2023-12-20T13:30:04;16.15;;;2.47;;
14766;SDS011;7475;53.558;9.970;2023-12-20T13:32:30;13.45;;;2.60;;
14766;SDS011;7475;53.558;9.970;2023-12-20T13:34:55;16.77;;;3.30;;
14766;SDS011;7475;53.558;9.970;2023-12-20T13:37:21;16.67;;;2.58;;
14766;SDS011;7475;53.558;9.970;2023-12-20T13:39:46;10.27;;;2.88;;
14766;SDS011;7475;53.558;9.970;2023-12-20T13:42:11;18.52;;;3.03;;
14766;SDS011;7475;53.558;9.970;2023-12-20T13:44:36;14.68;;;3.47;;
14766;SDS011;7475;53.558;9.970;2023-12-20T13:47:01;13.40;;;3.00;;
14766;SDS011;7475;53.558;9.970;2023-12-20T13:49:28;16.02;;;3.50;;
14766;SDS011;7475;53.558;9.970;2023-12-20T13:51:53;20.65;;;3.92;;
14766;SDS011;7475;53.558;9.970;2023-12-20T13:54:19;17.58;;;3.10;;
14766;SDS011;7475;53.558;9.970;2023-12-20T13:56:46;17.42;;;4.10;;
14766;SDS011;7475;53.558;9.970;2023-12-20T13:59:11;17.15;;;3.70;;
14766;SDS011;7475;53.558;9.970;2023-12-20T14:01:37;17.20;;;3.10;;
14766;SDS011;7475;53.558;9.970;2023-12-20T14:04:03;14.98;;;3.30;;
14766;SDS011;7475;53.558;9.970;2023-12-20T14:06:28;22.95;;;4.05;;
14766;SDS011;7475;53.558;9.970;2023-12-20T14:08:54;21.38;;;4.07;;
14766;SDS011;7475;53.558;9.970;2023-12-20T14:11:19;21.63;;;4.13;;
14766;SDS011;7475;53.558;9.970;2023-12-20T14:13:45;16.73;;;3.92;;
14766;SDS011;7475;53.558;9.970;2023-12-20T14:16:10;20.92;;;4.38;;
14766;SDS011;7475;53.558;9.970;2023-12-20T14:18:35;21.08;;;4.57;;
14766;SDS011;7475;53.558;9.970;2023-12-20T14:21:01;21.00;;;3.67;;
14766;SDS011;7475;53.558;9.970;2023-12-20T14:23:26;15.80;;;3.83;;
14766;SDS011;7475;53.558;9.970;2023-12-20T14:25:51;13.60;;;3.78;;
14766;SDS011;7475;53.558;9.970;2023-12-20T14:28:16;25.77;;;4.53;;
14766;SDS011;7475;53.558;9.970;2023-12-20T14:30:42;13.02;;;3.60;;
14766;SDS011;7475;53.558;9.970;2023-12-20T14:33:07;13.65;;;3.72;;
14766;SDS011;7475;53.558;9.970;2023-12-20T14:35:33;18.63;;;4.72;;
14766;SDS011;7475;53.558;9.970;2023-12-20T14:37:58;16.58;;;4.05;;
14766;SDS011;7475;53.558;9.970;2023-12-20T14:40:23;20.60;;;3.70;;
14766;SDS011;7475;53.558;9.970;2023-12-20T14:42:48;12.68;;;3.28;;
14766;SDS011;7475;53.558;9.970;2023-12-20T14:45:14;11.30;;;3.05;;